Time;durP1;ratioP1;P1;durP2;ratioP2;P2;SDS_P1;SDS_P2;PMS_P1;PMS_P2;Temp;Humidity;BMP_temperature;BMP_pressure;BME280_temperature;BME280_humidity;BME280_pressure;Samples;Min_cycle;Max_cycle;Signal;HPM_P1;HPM_P2
2023/08/24 00:00:41;;;;;;;3.33;2.42;;;14.00;99.90;;;;;;5124438;27;20066;-67
2023/08/24 00:03:08;;;;;;;3.90;2.42;;;13.90;99.90;;;;;;5123903;27;20116;-68
2023/08/24 00:05:38;;;;;;;3.15;2.17;;;14.00;99.90;;;;;;5135856;27;20371;-68
2023/08/24 00:08:08;;;;;;;4.78;2.47;;;13.90;99.90;;;;;;5142556;27;20133;-68
2023/08/24 00:10:34;;;;;;;3.33;1.85;;;13.90;99.90;;;;;;5140588;27;20054;-66
2023/08/24 00:13:00;;;;;;;5.43;2.08;;;13.80;99.90;;;;;;5138870;27;20113;-66
2023/08/24 00:15:26;;;;;;;4.78;2.00;;;13.80;99.90;;;;;;5123553;27;20664;-65
2023/08/24 00:17:52;;;;;;;3.42;1.88;;;13.80;99.90;;;;;;5117107;27;20050;-66
2023/08/24 00:20:19;;;;;;;5.80;2.10;;;13.70;99.90;;;;;;5142650;27;20473;-67
2023/08/24 00:22:46;;;;;;;2.80;1.80;;;13.70;99.90;;;;;;5142138;27;20050;-66
2023/08/24 00:25:12;;;;;;;4.68;2.25;;;13.70;99.90;;;;;;5142388;27;20425;-67
2023/08/24 00:27:37;;;;;;;4.00;2.30;;;13.70;99.90;;;;;;5123653;27;20042;-67
2023/08/24 00:30:06;;;;;;;3.78;2.10;;;13.70;99.90;;;;;;5141555;27;20076;-66
2023/08/24 00:32:34;;;;;;;2.90;1.60;;;13.60;99.90;;;;;;5144835;27;20043;-67
2023/08/24 00:35:04;;;;;;;3.92;1.90;;;13.60;99.90;;;;;;5144252;27;20038;-67
2023/08/24 00:37:30;;;;;;;2.35;1.55;;;13.70;99.90;;;;;;5125681;27;20410;-66
2023/08/24 00:39:55;;;;;;;1.00;0.75;;;13.60;99.90;;;;;;5144291;27;20047;-66
2023/08/24 00:42:22;;;;;;;1.20;0.93;;;13.60;99.90;;;;;;5128029;27;20129;-67
2023/08/24 00:44:51;;;;;;;1.55;1.00;;;13.60;99.90;;;;;;5150868;27;20117;-67
2023/08/24 00:47:17;;;;;;;1.73;1.17;;;13.70;99.90;;;;;;5146457;27;20031;-66
2023/08/24 00:49:43;;;;;;;5.85;1.83;;;13.70;99.90;;;;;;5146557;27;20031;-66
2023/08/24 00:52:10;;;;;;;3.03;1.42;;;13.60;99.90;;;;;;5145483;27;20489;-67
2023/08/24 00:54:37;;;;;;;3.70;2.13;;;13.70;99.90;;;;;;5144503;27;20055;-66
2023/08/24 00:57:03;;;;;;;3.65;1.95;;;13.70;99.90;;;;;;5143110;27;20092;-67
2023/08/24 00:59:29;;;;;;;4.00;2.55;;;13.70;99.90;;;;;;5127203;27;20046;-67
2023/08/24 01:01:55;;;;;;;3.03;1.70;;;13.70;99.90;;;;;;5146170;27;20041;-67
2023/08/24 01:04:22;;;;;;;4.65;1.92;;;13.70;99.90;;;;;;5144887;27;20049;-66
2023/08/24 01:06:48;;;;;;;4.60;2.20;;;13.70;99.90;;;;;;5146023;27;20051;-68
2023/08/24 01:09:14;;;;;;;3.58;2.55;;;13.80;99.90;;;;;;5145952;27;20054;-67
2023/08/24 01:12:04;;;;;;;3.92;2.60;;;13.80;99.90;;;;;;5125716;27;20385;-67
2023/08/24 01:14:51;;;;;;;4.72;2.30;;;13.90;99.90;;;;;;5132342;27;20560;-68
2023/08/24 01:17:22;;;;;;;6.35;2.80;;;13.90;99.90;;;;;;5142876;27;20039;-66
2023/08/24 01:19:49;;;;;;;5.35;2.65;;;13.90;99.90;;;;;;5145528;27;20034;-66
2023/08/24 01:22:26;;;;;;;6.55;3.03;;;13.90;99.90;;;;;;5145360;27;20054;-67
2023/08/24 01:24:58;;;;;;;6.13;3.10;;;13.90;99.90;;;;;;5145647;27;20103;-67
2023/08/24 01:27:25;;;;;;;3.08;2.40;;;13.90;99.90;;;;;;5146021;27;20042;-67
2023/08/24 01:29:52;;;;;;;5.60;2.33;;;14.10;99.90;;;;;;5125492;27;20747;-68
2023/08/24 01:32:18;;;;;;;3.50;2.15;;;14.00;99.90;;;;;;5142225;27;20047;-66
2023/08/24 01:34:43;;;;;;;6.10;2.67;;;14.00;99.90;;;;;;5143668;27;20042;-67
2023/08/24 01:37:10;;;;;;;6.72;2.30;;;14.00;99.90;;;;;;5142033;27;20050;-66
2023/08/24 01:39:46;;;;;;;3.50;2.08;;;14.00;99.90;;;;;;5142242;27;20062;-66
2023/08/24 01:42:19;;;;;;;4.50;2.20;;;14.00;99.90;;;;;;5143789;27;20538;-66
2023/08/24 01:44:50;;;;;;;5.32;2.28;;;14.00;99.90;;;;;;5146092;27;20046;-66
2023/08/24 01:47:18;;;;;;;3.25;2.30;;;14.00;99.90;;;;;;5145028;27;20050;-66
2023/08/24 01:49:44;;;;;;;4.22;2.35;;;14.00;99.90;;;;;;5145235;27;20045;-67
2023/08/24 01:52:11;;;;;;;8.07;3.17;;;14.00;99.90;;;;;;5143032;27;20058;-66
2023/08/24 01:54:37;;;;;;;7.45;3.25;;;14.10;99.90;;;;;;5146829;27;20053;-68
2023/08/24 01:57:05;;;;;;;5.78;2.38;;;14.10;99.90;;;;;;5145341;27;20030;-68
2023/08/24 01:59:31;;;;;;;6.88;2.70;;;14.20;99.90;;;;;;5141816;27;20069;-67
2023/08/24 02:01:57;;;;;;;5.50;2.45;;;14.20;99.90;;;;;;5122662;27;20074;-67
2023/08/24 02:04:22;;;;;;;4.13;2.70;;;14.10;99.90;;;;;;5149928;27;20114;-67
2023/08/24 02:06:48;;;;;;;4.43;2.78;;;14.20;99.90;;;;;;5141110;27;20539;-67
2023/08/24 02:09:14;;;;;;;5.15;2.90;;;14.10;99.90;;;;;;5142130;27;20156;-67
2023/08/24 02:11:39;;;;;;;3.92;2.30;;;14.20;99.90;;;;;;5149173;27;20038;-66
2023/08/24 02:14:05;;;;;;;7.95;3.30;;;14.20;99.90;;;;;;5144612;27;20039;-67
2023/08/24 02:16:31;;;;;;;3.53;2.45;;;14.10;99.90;;;;;;5126294;27;20494;-66
2023/08/24 02:18:56;;;;;;;7.72;2.92;;;14.20;99.90;;;;;;5144665;27;20447;-66
2023/08/24 02:21:22;;;;;;;9.80;3.65;;;14.20;99.90;;;;;;5151590;27;20400;-67
2023/08/24 02:23:47;;;;;;;4.55;2.50;;;14.20;99.90;;;;;;5150848;27;20043;-67
2023/08/24 02:26:13;;;;;;;5.03;2.60;;;14.10;99.90;;;;;;5146247;27;20125;-67
2023/08/24 02:28:39;;;;;;;5.50;2.63;;;14.20;99.90;;;;;;5147642;27;20489;-67
2023/08/24 02:31:05;;;;;;;6.05;3.25;;;14.20;99.90;;;;;;5143358;27;20054;-68
2023/08/24 02:33:31;;;;;;;7.50;3.33;;;14.20;99.90;;;;;;5145379;27;20051;-67
2023/08/24 02:35:57;;;;;;;5.47;3.05;;;14.20;99.90;;;;;;5148998;27;20045;-67
2023/08/24 02:38:26;;;;;;;6.78;2.75;;;14.20;99.90;;;;;;5122015;27;20126;-67
2023/08/24 02:41:04;;;;;;;6.45;3.20;;;14.20;99.90;;;;;;5141516;27;20390;-66
2023/08/24 02:43:30;;;;;;;6.00;3.80;;;14.20;99.90;;;;;;5146471;27;20399;-67
2023/08/24 02:46:18;;;;;;;5.80;3.30;;;14.20;99.90;;;;;;5122713;27;20100;-67
2023/08/24 02:48:44;;;;;;;8.63;4.20;;;14.20;99.90;;;;;;5143646;27;20527;-68
2023/08/24 02:51:10;;;;;;;8.77;3.38;;;14.30;99.90;;;;;;5145577;27;20055;-67
2023/08/24 02:53:36;;;;;;;7.57;3.03;;;14.30;99.90;;;;;;5144011;27;20091;-67
2023/08/24 02:56:03;;;;;;;7.05;3.40;;;14.40;99.90;;;;;;5144458;27;20035;-68
2023/08/24 02:58:29;;;;;;;5.30;3.25;;;14.30;99.90;;;;;;5149319;27;20045;-66
2023/08/24 03:00:55;;;;;;;5.35;3.05;;;14.40;99.90;;;;;;5122045;27;20481;-66
2023/08/24 03:03:21;;;;;;;5.35;3.45;;;14.40;99.90;;;;;;5146621;27;20119;-67
2023/08/24 03:05:58;;;;;;;5.78;3.95;;;14.40;99.90;;;;;;5143221;27;20031;-67
2023/08/24 03:08:25;;;;;;;6.47;3.47;;;14.40;99.90;;;;;;5142177;27;20134;-67
2023/08/24 03:10:50;;;;;;;10.02;4.57;;;14.40;99.90;;;;;;5144428;27;20125;-66
2023/08/24 03:13:16;;;;;;;13.02;5.13;;;14.40;99.90;;;;;;5143155;27;20126;-67
2023/08/24 03:15:42;;;;;;;13.63;5.22;;;14.40;99.90;;;;;;5145379;27;20481;-67
2023/08/24 03:18:11;;;;;;;7.75;5.75;;;14.40;99.90;;;;;;5143516;27;20049;-66
2023/08/24 03:20:37;;;;;;;10.88;5.00;;;14.50;99.90;;;;;;5142000;27;20091;-66
2023/08/24 03:23:03;;;;;;;14.98;5.13;;;14.50;99.90;;;;;;5123101;27;20043;-68
2023/08/24 03:25:28;;;;;;;9.10;4.32;;;14.40;99.90;;;;;;5147288;27;20043;-67
2023/08/24 03:27:55;;;;;;;11.88;5.40;;;14.40;99.90;;;;;;5143661;27;20121;-67
2023/08/24 03:30:22;;;;;;;8.77;4.78;;;14.40;99.90;;;;;;5140218;27;20382;-67
2023/08/24 03:32:48;;;;;;;7.60;4.90;;;14.40;99.90;;;;;;5147325;27;20149;-66
2023/08/24 03:35:14;;;;;;;8.25;4.72;;;14.40;99.90;;;;;;5142835;27;20039;-67
2023/08/24 03:37:40;;;;;;;8.27;5.30;;;14.30;99.90;;;;;;5140073;27;20057;-66
2023/08/24 03:40:06;;;;;;;11.02;5.15;;;14.30;99.90;;;;;;5142469;27;20042;-67
2023/08/24 03:42:32;;;;;;;9.30;5.47;;;14.30;99.90;;;;;;5142627;27;20118;-66
2023/08/24 03:44:59;;;;;;;12.70;5.40;;;14.40;99.90;;;;;;5125449;27;20122;-66
2023/08/24 03:47:25;;;;;;;10.98;5.65;;;14.40;99.90;;;;;;5139946;27;20092;-66
2023/08/24 03:49:51;;;;;;;11.32;6.20;;;14.40;99.90;;;;;;5144029;27;20047;-66
2023/08/24 03:52:16;;;;;;;7.75;5.80;;;14.40;99.90;;;;;;5140636;27;20038;-66
2023/08/24 03:54:42;;;;;;;10.15;6.75;;;14.40;99.90;;;;;;5145043;27;20587;-66
2023/08/24 03:57:08;;;;;;;9.13;6.13;;;14.40;99.90;;;;;;5128949;27;20043;-67
2023/08/24 03:59:33;;;;;;;9.85;6.55;;;14.40;99.90;;;;;;5139762;27;20043;-67
2023/08/24 04:02:02;;;;;;;11.90;6.90;;;14.40;99.90;;;;;;5139826;27;20039;-67
2023/08/24 04:04:28;;;;;;;11.55;6.53;;;14.50;99.90;;;;;;5122510;27;20054;-67
2023/08/24 04:06:53;;;;;;;12.32;6.60;;;14.50;99.90;;;;;;5139084;27;20047;-67
2023/08/24 04:09:19;;;;;;;10.05;6.40;;;14.50;99.90;;;;;;5147779;27;20062;-68
2023/08/24 04:11:45;;;;;;;6.82;4.80;;;14.50;99.90;;;;;;5140932;27;20389;-67
2023/08/24 04:14:10;;;;;;;12.65;5.40;;;14.50;99.90;;;;;;5142779;27;20079;-67
2023/08/24 04:16:36;;;;;;;11.98;5.80;;;14.60;99.90;;;;;;5141560;27;20401;-65
2023/08/24 04:19:01;;;;;;;11.07;5.95;;;14.50;99.90;;;;;;5141967;27;20405;-67
2023/08/24 04:21:27;;;;;;;12.68;5.70;;;14.50;99.90;;;;;;5126263;27;20099;-68
2023/08/24 04:23:53;;;;;;;11.25;5.97;;;14.60;99.90;;;;;;5135207;27;20034;-67
2023/08/24 04:26:19;;;;;;;8.75;5.45;;;14.60;99.90;;;;;;5142151;27;20496;-66
2023/08/24 04:28:44;;;;;;;12.85;7.82;;;14.60;99.90;;;;;;5138859;27;20049;-69
2023/08/24 04:31:10;;;;;;;10.88;6.05;;;14.60;99.90;;;;;;5139250;27;20121;-67
2023/08/24 04:33:35;;;;;;;10.80;6.25;;;14.60;99.90;;;;;;5144752;27;20055;-67
2023/08/24 04:36:03;;;;;;;8.45;6.00;;;14.60;99.90;;;;;;5139743;27;20046;-67
2023/08/24 04:38:29;;;;;;;9.75;5.32;;;14.60;99.90;;;;;;5143698;27;20034;-68
2023/08/24 04:40:55;;;;;;;8.50;5.35;;;14.60;99.90;;;;;;5142349;27;20031;-67
2023/08/24 04:43:23;;;;;;;10.30;5.50;;;14.60;99.90;;;;;;5141684;27;20129;-67
2023/08/24 04:45:52;;;;;;;8.32;5.95;;;14.60;99.90;;;;;;5142186;27;20038;-67
2023/08/24 04:48:18;;;;;;;11.57;5.55;;;14.60;99.90;;;;;;5140206;27;20047;-67
2023/08/24 04:50:45;;;;;;;9.68;5.60;;;14.70;99.90;;;;;;5125183;28;20035;-67
2023/08/24 04:53:15;;;;;;;11.75;5.53;;;14.60;99.90;;;;;;5142038;27;20125;-68
2023/08/24 04:55:42;;;;;;;14.35;5.82;;;14.70;99.90;;;;;;5139007;27;20035;-67
2023/08/24 04:58:08;;;;;;;15.90;6.32;;;14.70;99.90;;;;;;5147301;27;20030;-68
2023/08/24 05:00:35;;;;;;;13.75;5.50;;;14.70;99.90;;;;;;5136184;27;20478;-68
2023/08/24 05:03:02;;;;;;;11.27;6.22;;;14.80;99.90;;;;;;5123769;27;20096;-67
2023/08/24 05:05:29;;;;;;;13.45;5.43;;;14.80;99.90;;;;;;5139834;27;20038;-68
2023/08/24 05:07:55;;;;;;;10.07;5.60;;;14.80;99.90;;;;;;5138259;27;20042;-67
2023/08/24 05:10:21;;;;;;;10.55;5.15;;;14.80;99.90;;;;;;5104731;27;20145;-69
2023/08/24 05:12:47;;;;;;;13.25;6.45;;;14.90;99.90;;;;;;5116788;27;20052;-67
2023/08/24 05:15:13;;;;;;;16.23;6.38;;;15.10;99.90;;;;;;5143209;27;20066;-67
2023/08/24 05:17:40;;;;;;;12.70;6.45;;;14.90;99.90;;;;;;5151625;27;20047;-67
2023/08/24 05:20:10;;;;;;;14.18;6.18;;;14.90;99.90;;;;;;5145604;27;20037;-67
2023/08/24 05:22:36;;;;;;;14.35;6.03;;;15.00;99.90;;;;;;5144365;27;20492;-68
2023/08/24 05:25:02;;;;;;;13.40;5.70;;;15.00;99.90;;;;;;5130264;27;20051;-68
2023/08/24 05:27:28;;;;;;;18.98;6.43;;;15.00;99.90;;;;;;5147714;27;20043;-67
2023/08/24 05:29:53;;;;;;;10.90;5.57;;;15.00;99.90;;;;;;5126231;27;20043;-68
2023/08/24 05:32:19;;;;;;;14.50;5.88;;;15.10;99.90;;;;;;5127091;27;20042;-67
2023/08/24 05:34:45;;;;;;;10.65;6.32;;;15.10;99.90;;;;;;5125621;27;20445;-68
2023/08/24 05:37:11;;;;;;;14.77;6.68;;;15.10;99.90;;;;;;5142724;27;20451;-67
2023/08/24 05:39:38;;;;;;;12.52;6.13;;;15.10;99.90;;;;;;5149618;27;20069;-67
2023/08/24 05:42:04;;;;;;;19.05;6.80;;;15.20;99.90;;;;;;5124480;27;20050;-68
2023/08/24 05:44:30;;;;;;;14.18;6.55;;;15.30;99.90;;;;;;5123941;27;20062;-68
2023/08/24 05:46:55;;;;;;;14.25;7.18;;;15.30;99.90;;;;;;5142941;27;20046;-67
2023/08/24 05:49:21;;;;;;;17.05;7.13;;;15.30;99.90;;;;;;5123080;27;20071;-67
2023/08/24 05:51:46;;;;;;;12.93;7.50;;;15.40;99.90;;;;;;5142077;27;20043;-68
2023/08/24 05:54:13;;;;;;;16.02;7.18;;;15.40;99.90;;;;;;5143989;27;20039;-68
2023/08/24 05:56:39;;;;;;;13.20;6.97;;;15.50;99.90;;;;;;5145510;27;20505;-68
2023/08/24 05:59:04;;;;;;;13.77;6.97;;;15.50;99.90;;;;;;5145487;27;20031;-68
2023/08/24 06:01:30;;;;;;;11.43;6.35;;;15.60;99.90;;;;;;5141771;27;20493;-68
2023/08/24 06:03:55;;;;;;;15.68;7.75;;;15.70;99.90;;;;;;5142146;27;20085;-69
2023/08/24 06:06:21;;;;;;;15.63;7.18;;;15.70;99.90;;;;;;5142913;27;20071;-68
2023/08/24 06:08:47;;;;;;;11.00;6.40;;;15.80;99.90;;;;;;5145114;27;20039;-67
2023/08/24 06:11:12;;;;;;;12.57;6.45;;;15.80;99.90;;;;;;5144856;27;20034;-68
2023/08/24 06:13:38;;;;;;;10.20;6.10;;;15.90;99.90;;;;;;5123501;27;20047;-67
2023/08/24 06:16:04;;;;;;;16.10;7.00;;;15.90;99.90;;;;;;5144357;27;20027;-68
2023/08/24 06:18:29;;;;;;;10.35;6.35;;;15.90;99.90;;;;;;5132098;27;20083;-68
2023/08/24 06:20:55;;;;;;;16.05;6.93;;;16.00;99.90;;;;;;5144800;27;20039;-67
2023/08/24 06:23:21;;;;;;;13.23;6.03;;;16.10;99.90;;;;;;5150749;27;20055;-67
2023/08/24 06:25:47;;;;;;;10.38;5.43;;;16.20;99.90;;;;;;5128266;27;20046;-67
2023/08/24 06:28:13;;;;;;;10.75;6.07;;;16.20;99.90;;;;;;5145827;27;20047;-68
2023/08/24 06:30:40;;;;;;;10.52;6.05;;;16.30;99.90;;;;;;5144040;27;20060;-67
2023/08/24 06:33:06;;;;;;;10.50;5.13;;;16.40;99.90;;;;;;5141335;27;20503;-68
2023/08/24 06:35:33;;;;;;;13.70;6.43;;;16.40;99.90;;;;;;5148480;27;20056;-68
2023/08/24 06:37:59;;;;;;;12.85;5.68;;;16.50;99.90;;;;;;5123413;27;20165;-67
2023/08/24 06:40:24;;;;;;;14.02;5.70;;;16.60;99.90;;;;;;5121425;27;20050;-68
2023/08/24 06:42:50;;;;;;;10.80;5.20;;;16.60;99.90;;;;;;5143653;27;20111;-67
2023/08/24 06:45:18;;;;;;;10.50;5.20;;;16.80;99.90;;;;;;5140951;27;20474;-68
2023/08/24 06:47:44;;;;;;;9.35;4.93;;;16.80;99.90;;;;;;5122039;27;20050;-69
2023/08/24 06:50:10;;;;;;;9.85;4.95;;;16.90;99.90;;;;;;5146185;27;20034;-67
2023/08/24 06:52:36;;;;;;;11.68;5.13;;;17.00;99.90;;;;;;5140561;27;20074;-69
2023/08/24 06:55:02;;;;;;;11.68;5.10;;;17.00;99.90;;;;;;5122401;27;20075;-68
2023/08/24 06:57:28;;;;;;;9.63;4.85;;;17.10;99.90;;;;;;5144279;27;20046;-68
2023/08/24 06:59:53;;;;;;;8.77;3.90;;;17.20;99.90;;;;;;5143969;27;20034;-69
2023/08/24 07:02:19;;;;;;;11.40;4.03;;;17.30;99.90;;;;;;5143260;27;20035;-68
2023/08/24 07:04:45;;;;;;;9.48;3.78;;;17.40;99.90;;;;;;5143816;27;20500;-68
2023/08/24 07:07:10;;;;;;;10.68;4.60;;;17.60;99.90;;;;;;5143841;27;20137;-68
2023/08/24 07:09:36;;;;;;;11.77;4.15;;;17.50;99.90;;;;;;5140850;27;20083;-68
2023/08/24 07:12:06;;;;;;;8.10;3.60;;;17.70;99.90;;;;;;5128208;27;20034;-69
2023/08/24 07:14:31;;;;;;;9.93;4.60;;;17.70;99.90;;;;;;5141915;27;20145;-69
2023/08/24 07:16:57;;;;;;;7.82;3.67;;;17.80;99.90;;;;;;5122164;27;20534;-68
2023/08/24 07:19:23;;;;;;;11.52;3.80;;;17.90;99.90;;;;;;5121466;27;20771;-68
2023/08/24 07:21:48;;;;;;;11.10;3.95;;;18.00;99.90;;;;;;5142342;27;20054;-68
2023/08/24 07:24:14;;;;;;;12.02;4.43;;;18.10;99.90;;;;;;5120700;27;20039;-68
2023/08/24 07:26:43;;;;;;;11.93;4.75;;;18.10;99.90;;;;;;5141588;27;20074;-68
2023/08/24 07:29:09;;;;;;;11.70;3.67;;;18.20;99.90;;;;;;5149235;27;20473;-68
2023/08/24 07:31:35;;;;;;;10.25;4.07;;;18.30;99.90;;;;;;5143511;27;20043;-68
2023/08/24 07:34:00;;;;;;;10.00;3.75;;;18.40;99.90;;;;;;5124358;27;20130;-68
2023/08/24 07:36:26;;;;;;;13.18;3.67;;;18.60;99.90;;;;;;5124547;27;20137;-68
2023/08/24 07:38:51;;;;;;;10.20;3.72;;;18.60;99.90;;;;;;5122990;27;20098;-68
2023/08/24 07:41:18;;;;;;;8.10;3.30;;;18.70;99.90;;;;;;5143072;27;20408;-69
2023/08/24 07:43:44;;;;;;;8.27;3.60;;;18.90;99.90;;;;;;5143003;27;20057;-67
2023/08/24 07:46:09;;;;;;;11.13;3.97;;;19.00;99.90;;;;;;5121658;27;20046;-67
2023/08/24 07:48:36;;;;;;;12.30;4.45;;;19.10;99.90;;;;;;5139729;27;20176;-67
2023/08/24 07:51:02;;;;;;;9.88;4.10;;;19.20;99.90;;;;;;5129559;27;20050;-67
2023/08/24 07:53:28;;;;;;;8.40;4.20;;;19.30;99.90;;;;;;5142512;27;20026;-66
2023/08/24 07:55:57;;;;;;;9.15;4.28;;;19.50;99.90;;;;;;5142923;27;20039;-67
2023/08/24 07:58:23;;;;;;;8.90;4.47;;;19.60;99.90;;;;;;5120530;27;20039;-66
2023/08/24 08:00:51;;;;;;;10.77;3.80;;;19.80;99.90;;;;;;5125419;27;20051;-65
2023/08/24 08:03:18;;;;;;;7.55;3.90;;;20.00;99.90;;;;;;5124340;27;20532;-67
2023/08/24 08:05:45;;;;;;;9.00;4.00;;;20.10;99.90;;;;;;5142653;27;20579;-65
2023/08/24 08:08:11;;;;;;;8.27;3.58;;;20.30;99.90;;;;;;5141759;27;20107;-66
2023/08/24 08:10:37;;;;;;;11.25;5.13;;;20.50;99.90;;;;;;5139646;27;20043;-67
2023/08/24 08:13:03;;;;;;;10.77;3.95;;;20.60;99.90;;;;;;5139405;27;20386;-66
2023/08/24 08:15:28;;;;;;;7.60;3.90;;;20.80;99.90;;;;;;5125773;27;20047;-66
2023/08/24 08:17:54;;;;;;;9.70;3.95;;;21.00;99.90;;;;;;5124034;27;20483;-67
2023/08/24 08:20:20;;;;;;;10.07;4.10;;;21.30;99.90;;;;;;5142374;27;20053;-65
2023/08/24 08:22:45;;;;;;;8.70;3.53;;;21.40;99.90;;;;;;5141912;27;20053;-65
2023/08/24 08:25:12;;;;;;;11.65;3.92;;;21.70;99.90;;;;;;5150106;27;20865;-66
2023/08/24 08:27:38;;;;;;;11.88;3.60;;;22.00;99.90;;;;;;5123712;27;20110;-65
2023/08/24 08:30:05;;;;;;;12.18;3.97;;;22.20;99.90;;;;;;5141875;27;20088;-67
2023/08/24 08:32:31;;;;;;;8.35;3.75;;;22.40;99.90;;;;;;5142766;27;20046;-68
2023/08/24 08:35:00;;;;;;;6.28;3.95;;;22.70;99.90;;;;;;5123615;27;20521;-67
2023/08/24 08:37:27;;;;;;;11.07;4.82;;;22.90;99.90;;;;;;5138652;27;20055;-67
2023/08/24 08:39:52;;;;;;;10.32;4.15;;;23.10;99.90;;;;;;5141915;27;20047;-67
2023/08/24 08:42:18;;;;;;;11.75;4.40;;;23.40;99.90;;;;;;5141998;27;20046;-67
2023/08/24 08:44:46;;;;;;;8.43;3.80;;;23.40;99.90;;;;;;5149489;27;20438;-67
2023/08/24 08:47:13;;;;;;;7.25;3.80;;;23.50;99.90;;;;;;5142521;27;20050;-67
2023/08/24 08:49:47;;;;;;;8.40;4.35;;;23.60;99.90;;;;;;5131098;27;20043;-68
2023/08/24 08:52:13;;;;;;;;;;;23.70;99.90;;;;;;5144021;27;20452;-68
2023/08/24 08:54:38;;;;;;;10.32;4.32;;;24.00;99.90;;;;;;5143291;27;19919;-68
2023/08/24 08:57:04;;;;;;;9.80;3.92;;;24.20;99.90;;;;;;5144037;27;20046;-68
2023/08/24 08:59:31;;;;;;;9.07;3.70;;;24.30;99.90;;;;;;5145728;27;20118;-69
2023/08/24 09:01:58;;;;;;;9.27;4.50;;;24.50;99.90;;;;;;5154473;27;20134;-67
2023/08/24 09:04:31;;;;;;;8.80;3.80;;;24.50;99.90;;;;;;5143749;27;20051;-68
2023/08/24 09:06:57;;;;;;;10.85;4.10;;;24.50;99.90;;;;;;5142603;27;20087;-67
2023/08/24 09:09:25;;;;;;;10.38;3.67;;;24.40;99.90;;;;;;5144597;27;20055;-67
2023/08/24 09:11:51;;;;;;;9.23;3.75;;;24.50;99.90;;;;;;5148904;27;20050;-69
2023/08/24 09:14:17;;;;;;;8.05;3.92;;;24.30;99.90;;;;;;5142814;27;20055;-68
2023/08/24 09:16:43;;;;;;;8.30;4.03;;;24.30;99.90;;;;;;5132430;27;20050;-67
2023/08/24 09:19:11;;;;;;;11.45;4.05;;;24.20;99.90;;;;;;5142305;27;20502;-68
2023/08/24 09:21:38;;;;;;;13.70;4.38;;;24.10;99.90;;;;;;5144084;27;20108;-68
2023/08/24 09:24:04;;;;;;;9.35;4.05;;;24.10;99.90;;;;;;5145487;27;20042;-68
2023/08/24 09:26:42;;;;;;;8.13;3.95;;;24.00;99.90;;;;;;5145322;27;20542;-68
2023/08/24 09:29:15;;;;;;;8.75;4.03;;;24.00;99.90;;;;;;5142558;27;20054;-68
2023/08/24 09:31:43;;;;;;;10.80;4.78;;;24.00;99.90;;;;;;5143583;27;20043;-68
2023/08/24 09:34:10;;;;;;;12.50;4.60;;;23.90;99.90;;;;;;5145480;27;20401;-68
2023/08/24 09:36:36;;;;;;;8.60;4.55;;;23.90;99.90;;;;;;5127197;27;20053;-69
2023/08/24 09:39:13;;;;;;;9.25;4.07;;;23.80;99.90;;;;;;5142223;27;20035;-68
2023/08/24 09:41:45;;;;;;;6.28;3.53;;;23.70;99.90;;;;;;5142140;27;20100;-67
2023/08/24 09:44:14;;;;;;;14.25;4.85;;;23.70;99.90;;;;;;5124165;27;20419;-69
2023/08/24 09:46:40;;;;;;;6.53;4.00;;;23.60;99.90;;;;;;5142420;27;20047;-69
2023/08/24 09:49:08;;;;;;;9.55;3.88;;;23.60;99.90;;;;;;5125502;27;20043;-68
2023/08/24 09:51:35;;;;;;;7.93;3.60;;;23.60;99.90;;;;;;5127188;27;20686;-68
2023/08/24 09:54:06;;;;;;;9.15;3.63;;;23.50;99.90;;;;;;5125975;27;20474;-68
2023/08/24 09:56:41;;;;;;;7.40;4.18;;;23.40;99.90;;;;;;5141748;27;20043;-68
2023/08/24 09:59:18;;;;;;;11.73;3.95;;;23.50;99.90;;;;;;5142719;27;20046;-68
2023/08/24 10:01:48;;;;;;;10.25;4.07;;;23.50;99.90;;;;;;5144118;27;20050;-69
2023/08/24 10:04:28;;;;;;;7.20;4.00;;;23.40;99.90;;;;;;5144115;27;20043;-69
2023/08/24 10:07:07;;;;;;;10.80;4.38;;;23.50;99.90;;;;;;5141564;27;20122;-68
2023/08/24 10:10:03;;;;;;;7.75;4.85;;;23.50;99.90;;;;;;5126223;27;20122;-68
2023/08/24 10:12:31;;;;;;;9.60;4.57;;;23.40;99.90;;;;;;5142258;27;20085;-69
2023/08/24 10:15:03;;;;;;;9.75;4.22;;;23.40;99.90;;;;;;5122897;27;20050;-68
2023/08/24 10:17:31;;;;;;;11.30;5.20;;;23.30;99.90;;;;;;5142645;27;20054;-69
2023/08/24 10:20:01;;;;;;;9.00;4.70;;;23.30;99.90;;;;;;5144713;27;20050;-69
2023/08/24 10:22:28;;;;;;;12.55;4.93;;;23.30;99.90;;;;;;5144390;27;20099;-68
2023/08/24 10:24:55;;;;;;;7.78;4.90;;;23.20;99.90;;;;;;5141675;27;20031;-68
2023/08/24 10:27:22;;;;;;;11.38;5.88;;;23.20;99.90;;;;;;5122572;27;20043;-68
2023/08/24 10:29:48;;;;;;;11.80;5.82;;;23.20;99.90;;;;;;5143236;27;20099;-68
2023/08/24 10:32:15;;;;;;;9.70;5.45;;;23.10;99.90;;;;;;5147306;27;20039;-67
2023/08/24 10:34:40;;;;;;;9.20;4.25;;;23.10;99.90;;;;;;5149777;27;20077;-67
2023/08/24 10:37:10;;;;;;;9.98;4.75;;;23.00;99.90;;;;;;5122801;27;20722;-67
2023/08/24 10:39:38;;;;;;;6.45;5.00;;;23.00;99.90;;;;;;5148193;27;20058;-68
2023/08/24 10:42:04;;;;;;;8.02;4.80;;;22.90;99.90;;;;;;5136557;27;20515;-67
2023/08/24 10:44:38;;;;;;;11.93;4.70;;;22.90;99.90;;;;;;5125641;27;20039;-67
2023/08/24 10:47:07;;;;;;;10.23;5.13;;;22.80;99.90;;;;;;5143096;27;20039;-67
2023/08/24 10:49:33;;;;;;;11.07;5.38;;;22.80;99.90;;;;;;5143555;27;20099;-68
2023/08/24 10:52:20;;;;;;;7.57;4.30;;;22.80;99.90;;;;;;5144303;27;20043;-65
2023/08/24 10:54:48;;;;;;;10.88;5.10;;;22.70;99.90;;;;;;5145742;27;20041;-67
2023/08/24 10:57:19;;;;;;;8.32;5.13;;;22.70;99.90;;;;;;5141247;27;20071;-67
2023/08/24 10:59:45;;;;;;;9.43;5.18;;;22.70;99.90;;;;;;5122090;27;20087;-67
2023/08/24 11:02:19;;;;;;;7.78;4.75;;;22.60;99.90;;;;;;5141692;27;20035;-66
2023/08/24 11:05:07;;;;;;;15.37;5.77;;;22.70;99.90;;;;;;5127239;27;20486;-67
2023/08/24 11:07:33;;;;;;;9.57;5.00;;;22.60;99.90;;;;;;5140560;27;20051;-67
2023/08/24 11:09:58;;;;;;;9.82;5.20;;;22.50;99.90;;;;;;5147262;27;20400;-67
2023/08/24 11:12:24;;;;;;;10.00;5.32;;;22.60;99.90;;;;;;5142042;27;20060;-68
2023/08/24 11:14:54;;;;;;;13.00;5.93;;;22.60;99.90;;;;;;5144543;27;20095;-66
2023/08/24 11:17:20;;;;;;;14.65;5.70;;;22.60;99.90;;;;;;5141933;27;20042;-67
2023/08/24 11:19:50;;;;;;;11.43;6.05;;;22.50;99.90;;;;;;5143769;27;20034;-66
2023/08/24 11:22:19;;;;;;;10.93;6.22;;;22.50;99.90;;;;;;5143673;27;20051;-67
2023/08/24 11:24:45;;;;;;;12.93;6.47;;;22.50;99.90;;;;;;5139808;27;20038;-73
2023/08/24 11:27:11;;;;;;;10.65;5.72;;;22.50;99.90;;;;;;5140458;27;20030;-69
2023/08/24 11:29:36;;;;;;;10.85;5.75;;;22.50;99.90;;;;;;5142072;27;20077;-67
2023/08/24 11:32:03;;;;;;;13.68;5.78;;;22.50;99.90;;;;;;5146089;27;20149;-67
2023/08/24 11:34:32;;;;;;;8.48;5.68;;;22.50;99.90;;;;;;5140164;27;20038;-67
2023/08/24 11:36:57;;;;;;;10.15;5.75;;;22.60;99.90;;;;;;5142946;27;20094;-67
2023/08/24 11:39:31;;;;;;;12.18;6.22;;;22.60;99.90;;;;;;5143242;27;20137;-67
2023/08/24 11:42:01;;;;;;;13.18;6.78;;;22.60;99.90;;;;;;5140891;27;20058;-68
2023/08/24 11:44:28;;;;;;;12.45;5.70;;;22.70;99.90;;;;;;5145298;27;20152;-66
2023/08/24 11:46:56;;;;;;;13.48;6.25;;;22.70;99.90;;;;;;5142051;27;20041;-67
2023/08/24 11:49:21;;;;;;;12.25;6.57;;;22.80;99.90;;;;;;5139730;27;20039;-66
2023/08/24 11:51:49;;;;;;;14.13;7.32;;;22.90;99.90;;;;;;5139638;27;20087;-67
2023/08/24 11:54:18;;;;;;;10.95;6.97;;;22.90;99.90;;;;;;5142458;27;20061;-67
2023/08/24 11:56:44;;;;;;;10.13;6.65;;;23.00;99.90;;;;;;5139691;27;20043;-67
2023/08/24 11:59:14;;;;;;;13.32;6.95;;;23.00;99.90;;;;;;5141095;27;20054;-66
2023/08/24 12:01:41;;;;;;;9.00;6.63;;;23.00;99.90;;;;;;5142520;27;20451;-67
2023/08/24 12:04:07;;;;;;;11.55;7.72;;;23.10;99.90;;;;;;5142303;27;20421;-67
2023/08/24 12:06:33;;;;;;;11.82;6.88;;;23.00;99.90;;;;;;5141537;27;20043;-66
2023/08/24 12:08:59;;;;;;;10.50;7.38;;;23.10;99.90;;;;;;5141885;27;20071;-69
2023/08/24 12:11:26;;;;;;;13.77;6.97;;;23.10;99.90;;;;;;5140465;27;20035;-68
2023/08/24 12:13:54;;;;;;;12.88;7.05;;;23.10;99.90;;;;;;5139283;27;20569;-66
2023/08/24 12:16:22;;;;;;;10.60;7.07;;;23.10;99.90;;;;;;5147240;27;20094;-66
2023/08/24 12:18:55;;;;;;;11.65;6.85;;;23.10;99.90;;;;;;5139532;27;20054;-67
2023/08/24 12:21:22;;;;;;;12.50;6.93;;;23.10;99.90;;;;;;5139259;27;20842;-66
2023/08/24 12:24:02;;;;;;;12.05;7.53;;;23.10;99.90;;;;;;5142540;27;20516;-67
2023/08/24 12:26:28;;;;;;;12.15;6.82;;;23.10;99.90;;;;;;5141431;27;20133;-67
2023/08/24 12:28:59;;;;;;;14.95;7.25;;;23.10;99.90;;;;;;5142673;27;20046;-67
2023/08/24 12:31:28;;;;;;;16.38;7.78;;;23.10;99.90;;;;;;5142236;27;20061;-66
2023/08/24 12:34:10;;;;;;;14.07;6.85;;;23.20;99.90;;;;;;5139387;27;20035;-66
2023/08/24 12:36:38;;;;;;;13.73;6.93;;;23.00;99.90;;;;;;5142437;27;20087;-66
2023/08/24 12:39:05;;;;;;;10.52;7.13;;;23.20;99.90;;;;;;5146515;27;20032;-69
2023/08/24 12:41:31;;;;;;;15.57;6.97;;;23.20;99.90;;;;;;5139282;27;20470;-66
2023/08/24 12:43:57;;;;;;;12.02;6.95;;;23.20;99.90;;;;;;5122508;27;20066;-67